< < Back
Terminal Aerodrome Forecast


Current Version              Previous Versions:   1  2  3  4  5  6  7  8  9  

Terminal Aerodrome Forecast

927
FTUS44 KBMX 291720
TAFTCL
TAF
KTCL 291720Z 2918/3018 17007KT P6SM BKN035
     FM300200 16006KT P6SM OVC015
     FM300500 20006KT 4SM -RA OVC005
     FM301000 22006KT 3SM RA VCTS OVC005CB=

Latest METAR

431
SAUS70 KWBC 300200 RRF
MTRTCL
METAR KTCL 300153Z AUTO 14006KT 10SM CLR 17/07 A3016 RMK AO2 SLP213
T01720072


USA.gov is the U.S. government's official web portal to all federal, state and local government web resources and services.